createdAt,value
2018-10-15T00:00:06.119Z,0
2018-10-15T00:05:05.889Z,0
2018-10-15T00:10:06.181Z,0
2018-10-15T00:15:06.230Z,0
2018-10-15T00:20:06.313Z,0
2018-10-15T00:25:05.904Z,0
2018-10-15T00:30:06.037Z,0
2018-10-15T00:35:06.358Z,0
2018-10-15T00:40:06.166Z,0
2018-10-15T00:45:06.135Z,0
2018-10-15T00:50:05.902Z,0
2018-10-15T00:55:05.975Z,0
2018-10-15T01:00:06.243Z,0
2018-10-15T01:05:05.949Z,0
2018-10-15T01:10:06.081Z,0
2018-10-15T01:15:06.212Z,0
2018-10-15T01:20:05.842Z,0
2018-10-15T01:25:05.909Z,0
2018-10-15T01:30:06.283Z,0
2018-10-15T01:35:06.043Z,0
2018-10-15T01:40:06.295Z,0
2018-10-15T01:45:06.103Z,0
2018-10-15T01:50:06.097Z,0
2018-10-15T01:55:05.922Z,0
2018-10-15T02:00:06.102Z,0
2018-10-15T02:05:06.118Z,0
2018-10-15T02:10:06.170Z,0
2018-10-15T02:15:05.672Z,0
2018-10-15T02:20:06.118Z,0
2018-10-15T02:25:05.919Z,0
2018-10-15T02:30:06.022Z,0
2018-10-15T02:35:05.952Z,0
2018-10-15T02:40:05.783Z,0
2018-10-15T02:45:05.812Z,0
2018-10-15T02:50:06.191Z,0
2018-10-15T02:55:05.899Z,0
2018-10-15T03:00:05.839Z,0
2018-10-15T03:05:05.667Z,0
2018-10-15T03:10:06.069Z,0
2018-10-15T03:15:05.859Z,0
2018-10-15T03:20:06.080Z,0
2018-10-15T03:25:05.856Z,0
2018-10-15T03:30:05.788Z,0
2018-10-15T03:35:05.601Z,0
2018-10-15T03:40:05.722Z,0
2018-10-15T03:45:06.125Z,0
2018-10-15T03:50:05.765Z,0
2018-10-15T03:55:05.755Z,0
2018-10-15T04:00:05.641Z,0
2018-10-15T04:05:05.860Z,0
2018-10-15T04:10:05.859Z,0
2018-10-15T04:15:05.794Z,0
2018-10-15T04:20:05.667Z,0
2018-10-15T04:25:05.884Z,0
2018-10-15T04:30:05.685Z,0
2018-10-15T04:35:05.497Z,0
2018-10-15T04:40:05.875Z,0
2018-10-15T04:45:05.804Z,0
2018-10-15T04:50:05.748Z,0
2018-10-15T04:55:05.522Z,0
2018-10-15T05:00:05.759Z,0
2018-10-15T05:05:05.618Z,0
2018-10-15T05:10:05.460Z,0
2018-10-15T05:15:05.684Z,0
2018-10-15T05:20:05.613Z,0
2018-10-15T05:25:05.421Z,0
2018-10-15T05:30:05.742Z,0
2018-10-15T05:35:05.598Z,0
2018-10-15T05:40:05.459Z,0
2018-10-15T05:45:05.643Z,0
2018-10-15T05:50:05.777Z,0
2018-10-15T05:55:05.455Z,0
2018-10-15T06:00:05.875Z,0.8
2018-10-15T06:05:05.452Z,1.7
2018-10-15T06:10:05.512Z,2.5
2018-10-15T06:15:05.340Z,4.2
2018-10-15T06:20:05.478Z,5.8
2018-10-15T06:25:05.511Z,7.5
2018-10-15T06:30:05.679Z,10
2018-10-15T06:35:05.323Z,12.5
2018-10-15T06:40:05.347Z,14.2
2018-10-15T06:45:05.491Z,16.7
2018-10-15T06:50:05.557Z,18.3
2018-10-15T06:55:05.378Z,20.8
2018-10-15T07:00:05.287Z,21.7
2018-10-15T07:05:05.446Z,24.2
2018-10-15T07:10:05.400Z,25
2018-10-15T07:15:05.408Z,29.2
2018-10-15T07:20:05.627Z,35
2018-10-15T07:25:05.250Z,38.3
2018-10-15T07:30:05.511Z,40
2018-10-15T07:35:05.320Z,41.7
2018-10-15T07:40:05.475Z,44.2
2018-10-15T07:45:05.597Z,49.2
2018-10-15T07:50:05.217Z,55
2018-10-15T07:55:05.610Z,87.5
2018-10-15T08:00:05.195Z,115
2018-10-15T08:05:05.554Z,69.2
2018-10-15T08:10:05.639Z,60
2018-10-15T08:15:05.480Z,66.7
2018-10-15T08:20:05.457Z,70
2018-10-15T08:25:05.314Z,75.8
2018-10-15T08:30:05.207Z,80.8
2018-10-15T08:35:05.188Z,85
2018-10-15T08:40:05.337Z,96.7
2018-10-15T08:45:05.517Z,88.3
2018-10-15T08:50:05.224Z,89.2
2018-10-15T08:55:05.281Z,88.3
2018-10-15T09:00:05.487Z,89.2
2018-10-15T09:05:05.415Z,87.5
2018-10-15T09:10:05.494Z,77.5
2018-10-15T09:15:05.358Z,68.3
2018-10-15T09:20:05.179Z,73.3
2018-10-15T09:25:05.529Z,65.8
2018-10-15T09:30:05.323Z,62.5
2018-10-15T09:35:05.227Z,60.8
2018-10-15T09:40:05.327Z,71.7
2018-10-15T09:45:05.148Z,72.5
2018-10-15T09:50:05.145Z,61.7
2018-10-15T09:55:05.413Z,75
2018-10-15T10:00:05.309Z,77.5
2018-10-15T10:05:05.271Z,82.5
2018-10-15T10:10:05.263Z,85
2018-10-15T10:15:05.199Z,108.3
2018-10-15T10:20:05.367Z,95.8
2018-10-15T10:25:05.305Z,82.5
2018-10-15T10:30:05.432Z,85.8
2018-10-15T10:35:05.129Z,75.8
2018-10-15T10:40:05.165Z,72.5
2018-10-15T10:45:05.436Z,71.7
2018-10-15T10:50:05.035Z,69.2
2018-10-15T10:55:05.134Z,71.7
2018-10-15T11:00:04.988Z,70.8
2018-10-15T11:05:05.328Z,71.7
2018-10-15T11:10:05.304Z,75
2018-10-15T11:15:05.292Z,78.3
2018-10-15T11:20:05.353Z,80
2018-10-15T11:25:05.146Z,80
2018-10-15T11:30:05.089Z,84.2
2018-10-15T11:35:05.417Z,86.7
2018-10-15T11:40:04.980Z,89.2
2018-10-15T11:45:04.909Z,99.2
2018-10-15T11:50:05.259Z,100.8
2018-10-15T11:55:04.952Z,103.3
2018-10-15T12:00:04.946Z,150
2018-10-15T12:05:04.865Z,112.5
2018-10-15T12:10:05.113Z,205.8
2018-10-15T12:15:05.107Z,220
2018-10-15T12:20:05.076Z,237.5
2018-10-15T12:25:04.909Z,210
2018-10-15T12:30:05.165Z,290.8
2018-10-15T12:35:04.882Z,300.8
2018-10-15T12:40:05.040Z,310
2018-10-15T12:45:04.928Z,323.3
2018-10-15T12:50:05.027Z,350
2018-10-15T12:55:04.886Z,365.8
2018-10-15T13:00:05.010Z,140
2018-10-15T13:05:04.815Z,89.2
2018-10-15T13:10:04.827Z,90.8
2018-10-15T13:15:05.150Z,96.7
2018-10-15T13:20:05.075Z,96.7
2018-10-15T13:25:05.072Z,99.2
2018-10-15T13:30:05.102Z,112.5
2018-10-15T13:35:04.808Z,152.5
2018-10-15T13:40:04.743Z,129.2
2018-10-15T13:45:04.883Z,110.8
2018-10-15T13:50:05.010Z,105.8
2018-10-15T13:55:05.032Z,104.2
2018-10-15T14:00:04.754Z,100.8
2018-10-15T14:05:04.915Z,90.8
2018-10-15T14:10:04.958Z,84.2
2018-10-15T14:15:05.031Z,80.8
2018-10-15T14:20:04.712Z,81.7
2018-10-15T14:25:04.670Z,76.7
2018-10-15T14:30:04.754Z,74.2
2018-10-15T14:35:04.793Z,70.8
2018-10-15T14:40:04.764Z,69.2
2018-10-15T14:45:04.876Z,71.7
2018-10-15T14:50:04.907Z,65
2018-10-15T14:55:04.920Z,60
2018-10-15T15:00:04.922Z,55
2018-10-15T15:05:04.714Z,54.2
2018-10-15T15:10:04.728Z,57.5
2018-10-15T15:15:04.628Z,59.2
2018-10-15T15:20:04.872Z,50
2018-10-15T15:25:04.760Z,44.2
2018-10-15T15:30:04.696Z,45
2018-10-15T15:35:05.041Z,44.2
2018-10-15T15:40:04.683Z,40.8
2018-10-15T15:45:04.695Z,40.8
2018-10-15T15:50:04.805Z,33.3
2018-10-15T15:55:04.722Z,28.3
2018-10-15T16:00:04.849Z,24.2
2018-10-15T16:05:04.623Z,20
2018-10-15T16:10:04.764Z,15
2018-10-15T16:15:04.534Z,12.5
2018-10-15T16:20:04.564Z,10.8
2018-10-15T16:25:04.756Z,8.3
2018-10-15T16:45:12.756Z,2.5
2018-10-15T16:50:08.828Z,1.7
2018-10-15T16:55:08.630Z,0.8
2018-10-15T17:00:08.781Z,0
2018-10-15T17:05:08.657Z,0
2018-10-15T17:10:08.701Z,0
2018-10-15T17:15:10.405Z,0
2018-10-15T17:20:08.998Z,0
2018-10-15T17:25:09.992Z,0
2018-10-15T17:30:09.122Z,0
2018-10-15T17:35:08.878Z,0
2018-10-15T17:40:08.900Z,0
2018-10-15T17:45:09.117Z,0
2018-10-15T17:50:08.911Z,0
2018-10-15T17:55:09.525Z,0
2018-10-15T18:00:09.778Z,0
2018-10-15T18:05:09.375Z,0
2018-10-15T18:10:09.138Z,0
2018-10-15T18:15:09.630Z,0
2018-10-15T18:20:10.374Z,0
2018-10-15T18:25:09.225Z,0
2018-10-15T18:30:09.891Z,0
2018-10-15T18:35:16.555Z,0
2018-10-15T18:40:11.852Z,0
2018-10-15T18:45:08.840Z,0
2018-10-15T18:50:09.983Z,0
2018-10-15T18:55:08.811Z,0
2018-10-15T19:00:08.829Z,0
2018-10-15T19:05:09.349Z,0
2018-10-15T19:10:08.916Z,0
2018-10-15T19:15:08.723Z,0
2018-10-15T19:20:09.078Z,0
2018-10-15T19:25:08.842Z,0
2018-10-15T19:30:09.327Z,0
2018-10-15T19:35:09.243Z,0
2018-10-15T19:40:08.824Z,0
2018-10-15T19:45:09.330Z,0
2018-10-15T19:50:08.870Z,0
2018-10-15T19:55:09.762Z,0
2018-10-15T20:00:10.977Z,0
2018-10-15T20:05:08.914Z,0
2018-10-15T20:10:10.423Z,0
2018-10-15T20:15:08.388Z,0
2018-10-15T20:20:08.705Z,0
2018-10-15T20:25:08.952Z,0
2018-10-15T20:30:09.379Z,0
2018-10-15T20:35:08.973Z,0
2018-10-15T20:40:09.059Z,0
2018-10-15T20:45:09.346Z,0
2018-10-15T20:50:09.884Z,0
2018-10-15T20:55:09.407Z,0
2018-10-15T21:00:09.672Z,0
2018-10-15T21:05:08.299Z,0
2018-10-15T21:10:08.670Z,0
2018-10-15T21:15:08.751Z,0
2018-10-15T21:20:08.578Z,0
2018-10-15T21:25:08.482Z,0
2018-10-15T21:30:08.704Z,0
2018-10-15T21:35:08.285Z,0
2018-10-15T21:40:09.176Z,0
2018-10-15T21:45:08.665Z,0
2018-10-15T21:50:08.261Z,0
2018-10-15T21:55:08.545Z,0
2018-10-15T22:00:09.008Z,0
2018-10-15T22:05:08.296Z,0
2018-10-15T22:10:08.347Z,0
2018-10-15T22:15:08.501Z,0
2018-10-15T22:20:08.491Z,0
2018-10-15T22:25:08.346Z,0
2018-10-15T22:30:08.219Z,0
2018-10-15T22:35:08.359Z,0
2018-10-15T22:40:08.474Z,0
2018-10-15T22:45:08.372Z,0
2018-10-15T22:50:08.278Z,0
2018-10-15T22:55:08.292Z,0
2018-10-15T23:00:08.782Z,0
2018-10-15T23:05:08.413Z,0
2018-10-15T23:10:08.709Z,0
2018-10-15T23:15:10.758Z,0
2018-10-15T23:20:08.880Z,0
2018-10-15T23:25:08.649Z,0
2018-10-15T23:30:08.151Z,0
2018-10-15T23:35:08.462Z,0
2018-10-15T23:40:08.599Z,0
2018-10-15T23:45:08.534Z,0
2018-10-15T23:50:11.163Z,0
2018-10-15T23:55:08.478Z,0
